Time;durP1;ratioP1;P1;durP2;ratioP2;P2;SDS_P1;SDS_P2;PMS_P1;PMS_P2;Temp;Humidity;BMP_temperature;BMP_pressure;BME280_temperature;BME280_humidity;BME280_pressure;Samples;Min_cycle;Max_cycle;Signal;HPM_P1;HPM_P2
2021/11/30 00:01:21;;;;;;;14.00;13.53;;;17.50;61.30;;;;;;5014592;28;20548;-52
2021/11/30 00:03:48;;;;;;;14.60;14.10;;;17.50;61.10;;;;;;5013982;28;20476;-49
2021/11/30 00:06:15;;;;;;;14.17;13.63;;;17.40;60.90;;;;;;5014533;28;20450;-50
2021/11/30 00:08:42;;;;;;;14.00;13.50;;;17.40;62.00;;;;;;5014556;28;20533;-49
2021/11/30 00:11:12;;;;;;;14.80;14.20;;;17.50;62.10;;;;;;5014420;28;20486;-48
2021/11/30 00:13:40;;;;;;;14.97;14.33;;;17.40;62.00;;;;;;5014270;28;20458;-49
2021/11/30 00:16:08;;;;;;;13.87;13.47;;;17.40;61.60;;;;;;5013898;28;20456;-49
2021/11/30 00:18:36;;;;;;;14.17;13.67;;;17.30;61.80;;;;;;5014294;28;20810;-50
2021/11/30 00:21:05;;;;;;;15.10;14.50;;;17.20;61.20;;;;;;5014194;28;20876;-51
2021/11/30 00:23:32;;;;;;;13.87;13.47;;;17.30;62.00;;;;;;5013951;28;20480;-48
2021/11/30 00:25:59;;;;;;;13.80;13.40;;;17.20;62.40;;;;;;5014046;28;20821;-50
2021/11/30 00:28:28;;;;;;;14.30;13.90;;;17.20;62.70;;;;;;5013941;28;20446;-48
2021/11/30 00:30:55;;;;;;;14.73;14.20;;;17.20;62.80;;;;;;5014008;28;20488;-50
2021/11/30 00:33:22;;;;;;;13.93;13.33;;;17.20;61.80;;;;;;5013693;28;20827;-52
2021/11/30 00:35:49;;;;;;;16.30;15.50;;;17.20;62.80;;;;;;5013872;28;20866;-51
2021/11/30 00:38:17;;;;;;;14.67;14.17;;;17.10;62.70;;;;;;5013805;28;20456;-50
2021/11/30 00:40:45;;;;;;;15.50;14.90;;;17.10;62.90;;;;;;5013363;28;20542;-52
2021/11/30 00:43:19;;;;;;;14.60;14.10;;;17.10;63.10;;;;;;5013528;28;20465;-53
2021/11/30 00:45:54;;;;;;;15.60;14.90;;;17.10;63.20;;;;;;5013791;28;20509;-51
2021/11/30 00:48:22;;;;;;;14.10;13.50;;;17.00;63.20;;;;;;5013802;28;21024;-50
2021/11/30 00:50:51;;;;;;;14.73;14.23;;;17.00;63.20;;;;;;5013110;28;21076;-48
2021/11/30 00:53:18;;;;;;;14.80;14.30;;;17.00;63.60;;;;;;5013590;28;20477;-53
2021/11/30 00:55:45;;;;;;;14.50;14.00;;;17.00;63.60;;;;;;5013574;28;20450;-48
2021/11/30 00:58:12;;;;;;;14.17;13.70;;;16.90;62.90;;;;;;5013315;28;20533;-50
2021/11/30 01:00:39;;;;;;;14.30;13.80;;;16.90;63.40;;;;;;5012799;28;20959;-48
2021/11/30 01:03:08;;;;;;;14.70;14.20;;;16.90;64.90;;;;;;5012899;28;20466;-48
2021/11/30 01:05:35;;;;;;;15.27;14.57;;;16.80;63.60;;;;;;5013444;28;20461;-49
2021/11/30 01:08:01;;;;;;;14.87;14.37;;;16.80;64.00;;;;;;5013235;28;20442;-55
2021/11/30 01:10:29;;;;;;;16.07;15.30;;;16.80;64.00;;;;;;5013136;28;20882;-52
2021/11/30 01:12:55;;;;;;;15.20;14.70;;;16.80;63.70;;;;;;5012898;28;20470;-49
2021/11/30 01:15:23;;;;;;;13.90;13.50;;;16.70;64.20;;;;;;5012980;28;20450;-53
2021/11/30 01:17:50;;;;;;;14.50;14.00;;;16.60;64.60;;;;;;5013091;28;20940;-50
2021/11/30 01:20:19;;;;;;;14.60;14.10;;;16.60;64.50;;;;;;5013112;28;20481;-54
2021/11/30 01:22:46;;;;;;;14.33;13.83;;;16.60;64.90;;;;;;5012671;28;20473;-50
2021/11/30 01:25:12;;;;;;;15.90;15.20;;;16.60;65.00;;;;;;5012987;28;20450;-53
2021/11/30 01:27:40;;;;;;;14.60;14.10;;;16.50;63.90;;;;;;5012686;28;20453;-48
2021/11/30 01:30:09;;;;;;;15.70;15.00;;;16.50;65.00;;;;;;5012559;28;20800;-48
2021/11/30 01:32:37;;;;;;;14.03;13.60;;;16.50;64.70;;;;;;5012545;28;20962;-50
2021/11/30 01:35:04;;;;;;;14.97;14.27;;;16.50;65.20;;;;;;5012738;28;20545;-48
2021/11/30 01:37:33;;;;;;;14.50;14.00;;;16.40;65.50;;;;;;5012752;28;20473;-50
2021/11/30 01:40:01;;;;;;;14.17;13.67;;;16.40;64.50;;;;;;5012469;28;20454;-50
2021/11/30 01:42:28;;;;;;;14.57;14.07;;;16.40;65.40;;;;;;5012421;28;20438;-49
2021/11/30 01:45:02;;;;;;;14.80;14.10;;;16.30;65.70;;;;;;5012618;28;20509;-53
2021/11/30 01:47:54;;;;;;;15.00;14.50;;;16.30;65.30;;;;;;5012538;28;21042;-51
2021/11/30 01:50:21;;;;;;;15.03;14.43;;;16.30;64.20;;;;;;5012293;28;20453;-50
2021/11/30 01:52:50;;;;;;;14.57;14.07;;;16.20;64.60;;;;;;5012340;28;20849;-50
2021/11/30 01:55:18;;;;;;;13.43;12.93;;;16.30;65.70;;;;;;5012529;28;20450;-51
2021/11/30 01:57:46;;;;;;;15.20;14.57;;;16.20;65.10;;;;;;5012356;28;20544;-49
2021/11/30 02:00:14;;;;;;;14.37;13.87;;;16.30;65.40;;;;;;5012518;28;20454;-50
2021/11/30 02:02:41;;;;;;;14.23;13.73;;;16.20;65.10;;;;;;5011748;28;20994;-48
2021/11/30 02:05:08;;;;;;;15.30;14.60;;;16.20;65.50;;;;;;5012061;28;20947;-51
2021/11/30 02:07:36;;;;;;;14.30;13.80;;;16.10;64.60;;;;;;5012141;28;20445;-48
2021/11/30 02:10:08;;;;;;;13.60;13.20;;;16.10;66.00;;;;;;5011908;28;20450;-49
2021/11/30 02:12:35;;;;;;;14.53;14.03;;;16.10;66.50;;;;;;5011337;28;21062;-48
2021/11/30 02:15:03;;;;;;;13.70;13.30;;;16.10;66.50;;;;;;5011824;28;20453;-49
2021/11/30 02:17:30;;;;;;;13.80;13.40;;;16.20;67.00;;;;;;5012177;28;20449;-48
2021/11/30 02:19:59;;;;;;;13.53;13.13;;;16.10;66.80;;;;;;5012092;28;20450;-49
2021/11/30 02:22:27;;;;;;;14.03;13.53;;;16.10;67.30;;;;;;5011806;28;20508;-50
2021/11/30 02:24:54;;;;;;;14.63;14.13;;;16.20;66.10;;;;;;5011997;28;20450;-48
2021/11/30 02:27:22;;;;;;;13.70;13.30;;;16.10;66.90;;;;;;5011738;28;20456;-50
2021/11/30 02:29:49;;;;;;;14.47;13.87;;;16.10;67.40;;;;;;5011938;28;20799;-48
2021/11/30 02:32:16;;;;;;;14.60;14.00;;;16.10;66.80;;;;;;5011468;28;20485;-48
2021/11/30 02:34:44;;;;;;;13.33;12.87;;;16.10;67.20;;;;;;5011948;28;20815;-50
2021/11/30 02:37:14;;;;;;;13.73;13.33;;;16.10;67.00;;;;;;5011937;28;20569;-51
2021/11/30 02:39:44;;;;;;;13.97;13.47;;;16.00;67.40;;;;;;5011507;28;20964;-53
2021/11/30 02:42:12;;;;;;;14.30;13.80;;;16.00;65.90;;;;;;5011693;28;20446;-48
2021/11/30 02:44:39;;;;;;;13.77;13.20;;;15.90;66.60;;;;;;5011696;28;20470;-50
2021/11/30 02:47:08;;;;;;;13.90;13.50;;;15.80;67.20;;;;;;5011534;28;20446;-53
2021/11/30 02:49:37;;;;;;;13.90;13.50;;;15.90;67.90;;;;;;5011793;28;20491;-48
2021/11/30 02:52:10;;;;;;;14.27;13.77;;;15.90;67.90;;;;;;5011460;28;20508;-48
2021/11/30 02:54:41;;;;;;;14.07;13.67;;;15.80;67.00;;;;;;5011458;28;20481;-49
2021/11/30 02:57:10;;;;;;;14.10;13.50;;;15.80;67.10;;;;;;5011401;28;20454;-48
2021/11/30 02:59:40;;;;;;;13.03;12.63;;;15.80;67.90;;;;;;5011602;28;20817;-49
2021/11/30 03:02:12;;;;;;;14.30;13.90;;;15.80;68.40;;;;;;5011419;28;20449;-49
2021/11/30 03:04:39;;;;;;;14.00;13.50;;;15.70;67.90;;;;;;5011519;28;20470;-49
2021/11/30 03:07:11;;;;;;;13.70;13.30;;;15.80;68.70;;;;;;5011636;28;20456;-49
2021/11/30 03:09:40;;;;;;;13.00;12.57;;;15.80;68.60;;;;;;5011254;28;20457;-48
2021/11/30 03:12:08;;;;;;;14.03;13.63;;;15.80;68.10;;;;;;5011226;28;20512;-52
2021/11/30 03:14:35;;;;;;;13.30;12.90;;;15.80;69.10;;;;;;5011506;28;20841;-50
2021/11/30 03:17:04;;;;;;;13.77;13.37;;;15.80;68.80;;;;;;5011424;28;20457;-49
2021/11/30 03:19:31;;;;;;;13.80;13.40;;;15.80;68.80;;;;;;5011632;28;20810;-50
2021/11/30 03:22:00;;;;;;;14.90;14.40;;;15.90;69.40;;;;;;5011424;28;20469;-51
2021/11/30 03:24:27;;;;;;;13.60;13.20;;;15.80;68.20;;;;;;5015216;28;20993;-48
2021/11/30 03:26:56;;;;;;;13.87;13.47;;;15.70;69.50;;;;;;5015230;28;20448;-49
2021/11/30 03:29:23;;;;;;;13.67;13.27;;;15.70;70.00;;;;;;5015218;28;20469;-48
2021/11/30 03:31:58;;;;;;;13.50;13.10;;;15.80;70.00;;;;;;5014820;28;21006;-50
2021/11/30 03:34:23;;;;;;;14.00;13.60;;;15.80;69.70;;;;;;5014700;28;20523;-48
2021/11/30 03:36:52;;;;;;;13.90;13.50;;;15.70;69.60;;;;;;5014770;28;20445;-50
2021/11/30 03:39:21;;;;;;;13.07;12.67;;;15.80;70.20;;;;;;5014972;28;20205;-50
2021/11/30 03:41:50;;;;;;;13.90;13.50;;;15.70;70.20;;;;;;5014747;28;20446;-51
2021/11/30 03:44:19;;;;;;;14.63;13.93;;;15.70;69.90;;;;;;5014737;28;20479;-49
2021/11/30 03:46:46;;;;;;;14.07;13.67;;;15.80;70.20;;;;;;5014660;28;20460;-49
2021/11/30 03:49:16;;;;;;;13.93;13.53;;;15.70;69.50;;;;;;5014895;28;20456;-51
2021/11/30 03:51:43;;;;;;;13.70;13.30;;;15.70;70.10;;;;;;5014531;28;20489;-49
2021/11/30 03:54:10;;;;;;;14.13;13.67;;;15.70;69.30;;;;;;5014421;28;20473;-50
2021/11/30 03:56:38;;;;;;;14.57;14.17;;;15.60;69.90;;;;;;5014648;28;20446;-53
2021/11/30 03:59:05;;;;;;;13.53;13.10;;;15.60;70.40;;;;;;5014514;28;20446;-52
2021/11/30 04:01:33;;;;;;;14.10;13.60;;;15.70;70.80;;;;;;5014300;28;20438;-48
2021/11/30 04:04:01;;;;;;;13.90;13.50;;;15.70;70.70;;;;;;5014281;28;20971;-48
2021/11/30 04:06:28;;;;;;;14.00;13.60;;;15.70;69.20;;;;;;5014515;28;20458;-48
2021/11/30 04:08:54;;;;;;;13.90;13.40;;;15.70;70.70;;;;;;5014369;28;20446;-48
2021/11/30 04:11:21;;;;;;;14.20;13.77;;;15.70;70.90;;;;;;5014022;28;20478;-48
2021/11/30 04:13:49;;;;;;;14.60;14.10;;;15.70;70.70;;;;;;5014167;28;20544;-48
2021/11/30 04:16:16;;;;;;;13.63;13.23;;;15.70;71.40;;;;;;5014388;28;20446;-48
2021/11/30 04:18:45;;;;;;;14.50;13.90;;;15.70;72.10;;;;;;5014231;28;21046;-48
2021/11/30 04:21:11;;;;;;;14.37;13.90;;;15.60;73.00;;;;;;5014322;28;20474;-48
2021/11/30 04:23:39;;;;;;;13.63;13.23;;;15.60;72.20;;;;;;5013626;28;20466;-48
2021/11/30 04:26:06;;;;;;;13.80;13.40;;;15.60;73.40;;;;;;5014070;28;20485;-48
2021/11/30 04:28:32;;;;;;;13.67;13.27;;;15.50;73.70;;;;;;5014091;28;20954;-48
2021/11/30 04:30:59;;;;;;;13.30;12.90;;;15.50;72.50;;;;;;5013874;28;20979;-50
2021/11/30 04:33:26;;;;;;;13.70;13.20;;;15.50;73.00;;;;;;5012944;28;20474;-48
2021/11/30 04:35:55;;;;;;;14.10;13.60;;;15.50;73.80;;;;;;5013441;28;20674;-48
2021/11/30 04:38:21;;;;;;;14.83;14.23;;;15.50;74.10;;;;;;5013785;28;20817;-50
2021/11/30 04:40:48;;;;;;;13.20;12.80;;;15.50;74.50;;;;;;5013725;28;20447;-51
2021/11/30 04:43:15;;;;;;;13.70;13.30;;;15.50;74.90;;;;;;5013318;28;20462;-50
2021/11/30 04:45:55;;;;;;;13.70;13.30;;;15.40;76.50;;;;;;5013607;28;20533;-51
2021/11/30 04:48:24;;;;;;;12.97;12.67;;;15.40;78.40;;;;;;4994209;28;20497;-49
2021/11/30 04:50:52;;;;;;;13.43;13.03;;;15.40;80.70;;;;;;4994159;28;20455;-49
2021/11/30 04:53:21;;;;;;;14.03;13.63;;;15.40;81.50;;;;;;4993687;28;20491;-48
2021/11/30 04:55:50;;;;;;;14.30;13.80;;;15.40;81.50;;;;;;4994057;28;20513;-49
2021/11/30 04:58:17;;;;;;;14.00;13.60;;;15.40;82.70;;;;;;4998025;28;20460;-48
2021/11/30 05:00:44;;;;;;;14.40;14.00;;;15.40;83.70;;;;;;5013411;28;20450;-48
2021/11/30 05:03:11;;;;;;;14.40;14.00;;;15.40;84.30;;;;;;5013189;28;20584;-48
2021/11/30 05:05:39;;;;;;;13.97;13.57;;;15.40;85.80;;;;;;5013359;28;20536;-50
2021/11/30 05:08:06;;;;;;;13.90;13.50;;;15.40;85.90;;;;;;5013315;28;20446;-52
2021/11/30 05:10:34;;;;;;;13.67;13.27;;;15.40;86.20;;;;;;5013001;28;20454;-48
2021/11/30 05:13:02;;;;;;;14.30;13.90;;;15.40;86.90;;;;;;5012854;28;20501;-49
2021/11/30 05:15:29;;;;;;;13.90;13.50;;;15.40;88.50;;;;;;5013210;28;20457;-53
2021/11/30 05:17:55;;;;;;;14.10;13.70;;;15.40;88.60;;;;;;5013145;28;20541;-51
2021/11/30 05:20:22;;;;;;;14.83;14.33;;;15.40;88.60;;;;;;5013064;28;20453;-52
2021/11/30 05:22:52;;;;;;;14.10;13.70;;;15.40;90.20;;;;;;5012463;28;21009;-48
2021/11/30 05:25:19;;;;;;;14.50;14.10;;;15.50;90.10;;;;;;5012793;28;20489;-48
2021/11/30 05:27:49;;;;;;;13.83;13.33;;;15.50;90.20;;;;;;5012831;28;20442;-53
2021/11/30 05:30:19;;;;;;;14.23;13.80;;;15.50;90.50;;;;;;5012881;28;20546;-49
2021/11/30 05:32:47;;;;;;;14.10;13.70;;;15.50;90.80;;;;;;5012480;28;20525;-48
2021/11/30 05:35:14;;;;;;;13.83;13.43;;;15.50;90.80;;;;;;5012570;28;20486;-49
2021/11/30 05:37:41;;;;;;;13.97;13.57;;;15.50;90.80;;;;;;5012781;28;20469;-48
2021/11/30 05:40:09;;;;;;;13.93;13.53;;;15.40;91.10;;;;;;5012765;28;20450;-49
2021/11/30 05:42:36;;;;;;;16.27;15.47;;;15.40;90.90;;;;;;5012365;28;20450;-48
2021/11/30 05:45:05;;;;;;;17.33;15.67;;;15.40;99.90;;;;;;5012313;28;20452;-48
2021/11/30 05:47:32;;;;;;;17.23;15.40;;;15.60;99.90;;;;;;5012311;28;20450;-48
2021/11/30 05:49:59;;;;;;;14.10;13.50;;;15.70;99.90;;;;;;5012449;28;20449;-50
2021/11/30 05:52:26;;;;;;;17.20;16.00;;;16.20;99.90;;;;;;5012025;28;20481;-48
2021/11/30 05:54:53;;;;;;;17.13;16.03;;;16.80;99.90;;;;;;5012530;28;20445;-50
2021/11/30 05:57:22;;;;;;;16.60;15.27;;;17.30;99.90;;;;;;5012531;28;20450;-49
2021/11/30 05:59:49;;;;;;;20.47;17.40;;;17.80;99.90;;;;;;5012250;28;20453;-50
2021/11/30 06:02:19;;;;;;;17.67;16.37;;;18.20;99.90;;;;;;5012065;28;20533;-50
2021/11/30 06:04:46;;;;;;;17.33;16.07;;;18.60;99.90;;;;;;5012693;28;20442;-53
2021/11/30 06:07:13;;;;;;;17.10;16.00;;;18.80;99.90;;;;;;5011665;28;20445;-48
2021/11/30 06:09:40;;;;;;;18.73;16.50;;;19.00;99.90;;;;;;5012300;28;20453;-49
2021/11/30 06:12:08;;;;;;;17.50;16.23;;;19.10;99.90;;;;;;5011975;28;20473;-48
2021/11/30 06:14:34;;;;;;;18.00;16.87;;;19.20;99.90;;;;;;5012067;28;20470;-49
2021/11/30 06:17:01;;;;;;;17.60;16.50;;;19.20;99.90;;;;;;5011974;28;20457;-49
2021/11/30 06:19:30;;;;;;;18.83;17.53;;;19.40;99.90;;;;;;5012157;28;20449;-52
2021/11/30 06:21:57;;;;;;;16.60;15.67;;;19.50;99.90;;;;;;5011984;28;20438;-49
2021/11/30 06:24:23;;;;;;;17.60;16.50;;;19.40;99.90;;;;;;5011987;28;20462;-49
2021/11/30 06:26:50;;;;;;;16.80;15.90;;;19.50;99.90;;;;;;5011752;28;20815;-49
2021/11/30 06:29:18;;;;;;;17.83;16.47;;;19.30;98.60;;;;;;5011787;28;20446;-50
2021/11/30 06:31:45;;;;;;;16.63;15.73;;;19.30;97.50;;;;;;5011622;28;20485;-54
2021/11/30 06:34:12;;;;;;;16.07;15.17;;;19.40;98.10;;;;;;5011742;28;21068;-48
2021/11/30 06:36:40;;;;;;;19.00;17.63;;;19.30;96.80;;;;;;5011881;28;20444;-50
2021/11/30 06:39:07;;;;;;;18.70;17.40;;;19.40;96.90;;;;;;5011692;28;20456;-49
2021/11/30 06:41:34;;;;;;;18.30;17.20;;;19.50;95.10;;;;;;5011626;28;20446;-48
2021/11/30 06:44:01;;;;;;;18.07;17.17;;;19.40;92.70;;;;;;5011754;28;20851;-52
2021/11/30 06:46:28;;;;;;;18.13;17.03;;;19.40;93.60;;;;;;5011884;28;20449;-48
2021/11/30 06:48:55;;;;;;;17.83;16.87;;;19.40;92.00;;;;;;5011617;28;20537;-48
2021/11/30 06:51:22;;;;;;;15.77;15.03;;;19.40;91.70;;;;;;5011597;28;20454;-49
2021/11/30 06:53:50;;;;;;;16.47;15.77;;;19.30;90.50;;;;;;5044872;22;20555;-49
2021/11/30 06:56:17;;;;;;;16.10;15.30;;;19.40;90.50;;;;;;5031450;28;20441;-49
2021/11/30 06:58:44;;;;;;;16.90;16.20;;;19.30;89.90;;;;;;5034856;28;20459;-49
2021/11/30 07:01:12;;;;;;;16.77;16.00;;;19.30;89.20;;;;;;5035393;28;20455;-50
2021/11/30 07:03:42;;;;;;;15.60;14.83;;;19.40;87.80;;;;;;5035465;28;20461;-49
2021/11/30 07:06:16;;;;;;;14.60;14.00;;;19.30;84.50;;;;;;5035480;28;20532;-50
2021/11/30 07:08:51;;;;;;;15.63;15.00;;;19.30;84.20;;;;;;5035369;28;20543;-49
2021/11/30 07:11:22;;;;;;;16.00;15.40;;;19.20;82.70;;;;;;5035381;28;20451;-52
2021/11/30 07:13:49;;;;;;;16.23;15.53;;;19.20;83.70;;;;;;5035020;28;21016;-49
2021/11/30 07:16:16;;;;;;;17.80;16.80;;;19.30;82.20;;;;;;5035342;28;20445;-49
2021/11/30 07:18:43;;;;;;;15.83;15.23;;;19.30;81.70;;;;;;5035155;28;20543;-49
2021/11/30 07:21:10;;;;;;;16.60;15.90;;;19.30;80.50;;;;;;5035075;28;20479;-52
2021/11/30 07:23:37;;;;;;;16.83;16.17;;;19.30;79.20;;;;;;5034937;28;20544;-49
2021/11/30 07:26:04;;;;;;;16.20;15.30;;;19.20;79.00;;;;;;5035033;28;20822;-49
2021/11/30 07:28:33;;;;;;;15.60;15.07;;;19.20;77.20;;;;;;5034997;28;20456;-49
2021/11/30 07:31:03;;;;;;;15.10;14.60;;;19.20;78.00;;;;;;5034929;28;20445;-49
2021/11/30 07:33:31;;;;;;;14.73;14.23;;;19.20;76.80;;;;;;5034569;28;21006;-49
2021/11/30 07:35:58;;;;;;;14.73;14.13;;;19.10;75.80;;;;;;5035037;28;20532;-51
2021/11/30 07:38:25;;;;;;;14.90;14.40;;;19.10;75.00;;;;;;5034776;28;20475;-51
2021/11/30 07:40:52;;;;;;;14.50;14.00;;;19.00;75.40;;;;;;5034829;28;20449;-49
2021/11/30 07:43:19;;;;;;;15.37;14.67;;;19.00;74.10;;;;;;5034466;28;20467;-51
2021/11/30 07:45:47;;;;;;;15.70;15.10;;;18.90;73.50;;;;;;5034716;28;20437;-50
2021/11/30 07:48:14;;;;;;;15.13;14.67;;;19.00;73.80;;;;;;5034627;28;20441;-49
2021/11/30 07:50:41;;;;;;;15.67;15.07;;;19.00;73.10;;;;;;5034696;28;20465;-55
2021/11/30 07:53:08;;;;;;;15.30;14.80;;;19.00;72.90;;;;;;5034132;28;20493;-49
2021/11/30 07:55:36;;;;;;;15.53;14.90;;;18.90;72.60;;;;;;5034536;28;20547;-50
2021/11/30 07:58:03;;;;;;;16.17;15.57;;;18.90;72.20;;;;;;5034393;28;20449;-48
2021/11/30 08:00:30;;;;;;;16.40;15.80;;;18.90;72.10;;;;;;5034468;28;20476;-49
2021/11/30 08:02:58;;;;;;;16.00;15.40;;;18.90;71.30;;;;;;5034197;28;20457;-49
2021/11/30 08:05:25;;;;;;;15.37;14.87;;;18.80;70.70;;;;;;5034291;28;20942;-49
2021/11/30 08:07:52;;;;;;;15.47;14.87;;;18.80;71.30;;;;;;5034170;28;20528;-49
2021/11/30 08:10:21;;;;;;;14.43;14.03;;;18.70;70.60;;;;;;5034235;28;20449;-48
2021/11/30 08:12:48;;;;;;;15.70;15.10;;;18.70;70.90;;;;;;5033823;28;20563;-48
2021/11/30 08:15:18;;;;;;;14.17;13.77;;;18.70;70.90;;;;;;5034192;28;20964;-48
2021/11/30 08:17:45;;;;;;;15.23;14.70;;;18.60;69.70;;;;;;5034122;28;20479;-48
2021/11/30 08:20:13;;;;;;;14.70;14.20;;;18.50;69.80;;;;;;5034104;28;20445;-51
2021/11/30 08:22:42;;;;;;;14.23;13.73;;;18.30;69.80;;;;;;5033688;28;20854;-49
2021/11/30 08:25:10;;;;;;;15.10;14.70;;;18.10;70.50;;;;;;5033784;28;20873;-49
2021/11/30 08:27:37;;;;;;;15.00;14.40;;;18.10;71.20;;;;;;5033985;28;20551;-48
2021/11/30 08:30:05;;;;;;;14.70;14.20;;;18.00;71.10;;;;;;5033756;28;20441;-51
2021/11/30 08:32:34;;;;;;;14.50;14.10;;;18.00;71.50;;;;;;5033469;28;20532;-49
2021/11/30 08:35:01;;;;;;;15.90;15.30;;;17.90;71.50;;;;;;5033687;28;20872;-48
2021/11/30 08:37:29;;;;;;;15.23;14.70;;;17.90;71.40;;;;;;5033686;28;20545;-48
2021/11/30 08:39:56;;;;;;;15.33;14.83;;;17.80;71.00;;;;;;5033681;28;20455;-51
2021/11/30 08:42:23;;;;;;;15.53;14.90;;;17.80;71.90;;;;;;5033299;28;20540;-48
2021/11/30 08:44:51;;;;;;;15.57;14.87;;;17.90;71.70;;;;;;5033487;28;20723;-50
2021/11/30 08:47:20;;;;;;;15.13;14.70;;;18.00;71.40;;;;;;5033506;28;20451;-50
2021/11/30 08:49:48;;;;;;;15.70;15.00;;;18.00;70.80;;;;;;5033517;28;20814;-49
2021/11/30 08:52:18;;;;;;;15.07;14.57;;;18.10;70.50;;;;;;5033173;28;20828;-50
2021/11/30 08:54:46;;;;;;;14.90;14.50;;;18.10;70.50;;;;;;5033229;28;20619;-50
2021/11/30 08:57:14;;;;;;;15.80;15.30;;;18.10;69.60;;;;;;5033385;28;20878;-49
2021/11/30 08:59:42;;;;;;;15.10;14.60;;;18.20;69.80;;;;;;5033258;28;20950;-48
2021/11/30 09:02:09;;;;;;;15.50;15.00;;;18.20;69.30;;;;;;5033018;28;20445;-53
2021/11/30 09:04:36;;;;;;;14.90;14.50;;;18.20;69.00;;;;;;5033191;28;20472;-48
2021/11/30 09:07:04;;;;;;;15.80;15.20;;;18.20;68.90;;;;;;5033144;28;20813;-48
2021/11/30 09:09:32;;;;;;;15.87;15.40;;;18.20;69.00;;;;;;5033173;28;20540;-49
2021/11/30 09:12:00;;;;;;;14.33;13.93;;;18.20;68.60;;;;;;5032968;28;20449;-48
2021/11/30 09:14:27;;;;;;;14.73;14.33;;;18.20;68.10;;;;;;5032840;28;20489;-51
2021/11/30 09:16:56;;;;;;;14.73;14.33;;;18.30;68.30;;;;;;5033020;28;20449;-48
2021/11/30 09:19:24;;;;;;;14.10;13.70;;;18.30;67.80;;;;;;5032542;28;20460;-50
2021/11/30 09:21:51;;;;;;;14.10;13.70;;;18.20;67.70;;;;;;5032403;28;20532;-48
2021/11/30 09:24:18;;;;;;;13.93;13.50;;;18.30;67.60;;;;;;5032658;28;20995;-48
2021/11/30 09:26:45;;;;;;;14.20;13.80;;;18.20;67.20;;;;;;5032698;28;20449;-48
2021/11/30 09:29:13;;;;;;;13.70;13.30;;;18.20;67.20;;;;;;5032826;28;20551;-49
2021/11/30 09:31:40;;;;;;;15.60;15.13;;;18.10;67.20;;;;;;5032567;28;20451;-49
2021/11/30 09:34:08;;;;;;;13.10;12.80;;;18.10;67.30;;;;;;5032504;28;20847;-48
2021/11/30 09:36:35;;;;;;;14.10;13.70;;;18.10;67.00;;;;;;5032601;28;20940;-48
2021/11/30 09:39:06;;;;;;;12.40;12.10;;;18.20;67.00;;;;;;5032514;28;20456;-48
2021/11/30 09:41:34;;;;;;;13.10;12.70;;;18.20;66.70;;;;;;5032236;28;20449;-48
2021/11/30 09:44:01;;;;;;;13.43;13.03;;;18.20;66.50;;;;;;5032422;28;20552;-48
2021/11/30 09:46:29;;;;;;;12.50;12.17;;;18.10;66.40;;;;;;5032434;28;20824;-48
2021/11/30 09:48:56;;;;;;;12.17;11.87;;;18.10;66.40;;;;;;5032408;28;20448;-51
2021/11/30 09:51:23;;;;;;;14.97;14.57;;;18.00;66.60;;;;;;5032300;28;20449;-48
2021/11/30 09:53:49;;;;;;;14.90;14.50;;;17.90;67.60;;;;;;5031821;28;20602;-48
2021/11/30 09:56:16;;;;;;;15.27;14.77;;;17.90;67.00;;;;;;5032258;28;20445;-50
2021/11/30 09:58:44;;;;;;;14.63;14.23;;;18.00;66.90;;;;;;5032055;28;20441;-48
2021/11/30 10:01:12;;;;;;;14.80;14.40;;;18.10;66.70;;;;;;5031992;28;20817;-49
2021/11/30 10:03:41;;;;;;;14.90;14.50;;;18.10;66.50;;;;;;5031881;28;20480;-48
2021/11/30 10:06:09;;;;;;;15.60;15.10;;;18.10;66.40;;;;;;5032154;28;20449;-48
2021/11/30 10:08:40;;;;;;;15.70;15.30;;;18.20;66.20;;;;;;5032013;28;20441;-49
2021/11/30 10:11:10;;;;;;;14.80;14.40;;;18.20;66.10;;;;;;5032022;28;20927;-49
2021/11/30 10:13:37;;;;;;;14.73;14.33;;;18.20;66.00;;;;;;5031637;28;20985;-49
2021/11/30 10:16:06;;;;;;;14.80;14.40;;;18.20;65.80;;;;;;5031755;28;20445;-49
2021/11/30 10:18:36;;;;;;;14.60;14.20;;;18.20;65.50;;;;;;5031847;28;20448;-51
2021/11/30 10:21:21;;;;;;;15.00;14.60;;;18.30;65.30;;;;;;5031839;28;20480;-51
2021/11/30 10:23:50;;;;;;;14.30;13.90;;;18.20;65.20;;;;;;5031635;28;20811;-49
2021/11/30 10:26:19;;;;;;;14.63;14.23;;;18.20;65.10;;;;;;5031739;28;20935;-48
2021/11/30 10:28:51;;;;;;;14.80;14.40;;;18.20;65.00;;;;;;5031586;28;20515;-49
2021/11/30 10:31:23;;;;;;;14.63;14.23;;;18.30;64.90;;;;;;5031169;28;20452;-49
2021/11/30 10:33:51;;;;;;;14.37;13.97;;;18.30;64.60;;;;;;5031055;28;20496;-49
2021/11/30 10:36:20;;;;;;;14.53;14.10;;;18.30;64.40;;;;;;5031579;28;20456;-48
2021/11/30 10:38:47;;;;;;;15.43;15.03;;;18.30;64.30;;;;;;5031575;28;20473;-49
2021/11/30 10:41:17;;;;;;;15.37;14.97;;;18.30;64.40;;;;;;5031603;28;20449;-49
2021/11/30 10:43:52;;;;;;;14.30;13.90;;;18.20;64.80;;;;;;5031280;28;20460;-49
2021/11/30 10:46:27;;;;;;;15.10;14.70;;;18.20;67.50;;;;;;5031567;28;20448;-49
2021/11/30 10:48:56;;;;;;;14.70;14.30;;;18.20;71.70;;;;;;5031496;28;20455;-49
2021/11/30 10:51:26;;;;;;;14.77;14.37;;;18.10;73.90;;;;;;5031362;28;20484;-49
2021/11/30 10:53:58;;;;;;;14.90;14.40;;;18.10;75.40;;;;;;5031139;28;20484;-48
2021/11/30 10:56:26;;;;;;;15.07;14.63;;;18.00;77.50;;;;;;5032243;28;20449;-49
2021/11/30 10:58:55;;;;;;;14.73;14.33;;;18.00;78.90;;;;;;5038246;28;20804;-49
2021/11/30 11:01:24;;;;;;;14.97;14.47;;;18.00;80.40;;;;;;5043092;28;20455;-49
2021/11/30 11:04:06;;;;;;;14.20;13.80;;;18.00;83.00;;;;;;5031082;28;20555;-49
2021/11/30 11:06:36;;;;;;;15.43;15.03;;;17.90;82.70;;;;;;5031457;28;20445;-49
2021/11/30 11:09:07;;;;;;;15.33;14.93;;;17.90;83.40;;;;;;5031344;28;20889;-49
2021/11/30 11:11:35;;;;;;;15.63;15.23;;;17.90;84.00;;;;;;5048218;28;20452;-49
2021/11/30 11:14:04;;;;;;;15.13;14.73;;;17.80;85.00;;;;;;5040183;28;20495;-51
2021/11/30 11:16:33;;;;;;;14.80;14.40;;;17.80;85.00;;;;;;5031040;28;20449;-49
2021/11/30 11:19:01;;;;;;;14.30;13.90;;;17.80;85.40;;;;;;5031010;28;20453;-49
2021/11/30 11:21:30;;;;;;;15.57;15.17;;;17.80;86.50;;;;;;5030979;28;20481;-49
2021/11/30 11:24:18;;;;;;;14.50;14.10;;;17.80;86.60;;;;;;5039679;28;20465;-50
2021/11/30 11:26:46;;;;;;;15.37;14.87;;;17.80;87.30;;;;;;5051137;28;20455;-50
2021/11/30 11:29:16;;;;;;;14.43;14.03;;;17.90;87.60;;;;;;5050999;28;20817;-51
2021/11/30 11:31:45;;;;;;;14.40;13.70;;;18.00;87.90;;;;;;5050873;28;20463;-49
2021/11/30 11:34:14;;;;;;;14.60;14.20;;;18.00;86.50;;;;;;5050625;28;20858;-47
2021/11/30 11:36:42;;;;;;;14.80;14.40;;;18.10;85.60;;;;;;5051035;28;20448;-47
2021/11/30 11:39:08;;;;;;;13.73;13.40;;;18.20;84.20;;;;;;5051025;28;20496;-47
2021/11/30 11:41:37;;;;;;;15.63;15.13;;;18.30;83.40;;;;;;5050680;28;20527;-47
2021/11/30 11:44:04;;;;;;;15.00;14.60;;;18.30;82.60;;;;;;5052845;28;20460;-47
2021/11/30 11:46:35;;;;;;;14.83;14.43;;;18.30;81.80;;;;;;5054538;28;20815;-51
2021/11/30 11:49:05;;;;;;;15.30;14.90;;;18.30;80.70;;;;;;5054630;28;21020;-47
2021/11/30 11:51:36;;;;;;;14.57;14.17;;;18.30;80.30;;;;;;5054410;28;20451;-47
2021/11/30 11:54:04;;;;;;;14.80;14.30;;;18.40;79.70;;;;;;5054125;28;20578;-47
2021/11/30 11:56:33;;;;;;;15.20;14.80;;;18.40;78.90;;;;;;5054356;28;20448;-47
2021/11/30 11:59:16;;;;;;;15.07;14.57;;;18.40;78.30;;;;;;5054349;28;20450;-48
2021/11/30 12:01:46;;;;;;;14.50;14.10;;;18.40;77.70;;;;;;5054151;28;20497;-47
2021/11/30 12:04:15;;;;;;;14.70;14.30;;;18.40;77.30;;;;;;5054196;28;20995;-47
2021/11/30 12:06:56;;;;;;;15.07;14.67;;;18.40;76.90;;;;;;5054213;28;20881;-48
2021/11/30 12:09:27;;;;;;;14.97;14.57;;;18.40;76.40;;;;;;5054280;28;20455;-47
2021/11/30 12:11:57;;;;;;;15.73;15.33;;;18.40;76.10;;;;;;5054043;28;20440;-48
2021/11/30 12:14:32;;;;;;;14.70;14.30;;;18.30;75.70;;;;;;5054031;28;20491;-48
2021/11/30 12:17:19;;;;;;;14.77;14.37;;;18.30;75.50;;;;;;5054213;28;20454;-47
2021/11/30 12:19:48;;;;;;;14.23;13.83;;;18.30;75.40;;;;;;5054250;28;20444;-47
2021/11/30 12:22:31;;;;;;;15.07;14.67;;;18.30;75.10;;;;;;5053832;28;20858;-47
2021/11/30 12:24:58;;;;;;;15.77;15.30;;;18.20;75.10;;;;;;5053658;28;20543;-47
2021/11/30 12:27:42;;;;;;;14.83;14.43;;;18.10;75.10;;;;;;5053832;28;20490;-47
2021/11/30 12:30:42;;;;;;;15.07;14.67;;;18.10;75.10;;;;;;5053801;28;20491;-48
2021/11/30 12:33:19;;;;;;;15.43;15.03;;;18.10;75.20;;;;;;5048443;28;20839;-48
2021/11/30 12:35:54;;;;;;;15.20;14.70;;;18.10;74.90;;;;;;5053656;28;20574;-47